createdAt,value
2019-01-06T00:02:15.437Z,6.90
2019-01-06T00:04:49.164Z,6.90
2019-01-06T00:07:22.771Z,6.90
2019-01-06T00:09:56.332Z,6.90
2019-01-06T00:12:27.164Z,6.90
2019-01-06T00:14:57.960Z,7.00
2019-01-06T00:17:28.785Z,6.90
2019-01-06T00:20:18.078Z,6.90
2019-01-06T00:23:03.972Z,7.00
2019-01-06T00:25:50.957Z,7.00
2019-01-06T00:28:30.531Z,7.00
2019-01-06T00:31:01.366Z,7.00
2019-01-06T00:33:38.200Z,7.00
2019-01-06T00:36:09.037Z,7.00
2019-01-06T00:38:45.957Z,7.00
2019-01-06T00:41:29.092Z,7.00
2019-01-06T00:43:59.930Z,7.00
2019-01-06T00:46:33.628Z,7.10
2019-01-06T00:49:04.461Z,7.10
2019-01-06T00:51:50.450Z,7.10
2019-01-06T00:54:36.143Z,7.10
2019-01-06T00:57:25.206Z,7.10
2019-01-06T00:59:59.249Z,7.10
2019-01-06T01:02:45.349Z,7.10
2019-01-06T01:05:28.240Z,7.00
2019-01-06T01:08:15.340Z,7.00
2019-01-06T01:11:01.460Z,7.00
2019-01-06T01:13:34.949Z,7.00
2019-01-06T01:16:22.131Z,7.00
2019-01-06T01:18:58.915Z,7.00
2019-01-06T01:21:29.742Z,7.10
2019-01-06T01:24:15.573Z,7.10
2019-01-06T01:26:48.973Z,7.10
2019-01-06T01:29:19.780Z,7.10
2019-01-06T01:32:08.855Z,7.20
2019-01-06T01:34:54.722Z,7.20
2019-01-06T01:37:28.472Z,7.30
2019-01-06T01:39:59.279Z,7.20
2019-01-06T01:42:42.407Z,7.10
2019-01-06T01:45:25.523Z,7.10
2019-01-06T01:48:13.054Z,7.00
2019-01-06T01:50:43.963Z,7.00
2019-01-06T01:53:17.755Z,7.00
2019-01-06T01:55:48.619Z,7.00
2019-01-06T01:58:19.455Z,7.00
2019-01-06T02:01:02.227Z,7.00
2019-01-06T02:03:42.072Z,7.00
2019-01-06T02:06:22.058Z,6.90
2019-01-06T02:09:09.424Z,6.90
2019-01-06T02:11:52.463Z,6.90
2019-01-06T02:14:24.244Z,6.90
2019-01-06T02:17:11.624Z,6.90
2019-01-06T02:19:52.430Z,6.90
2019-01-06T02:22:41.685Z,6.80
2019-01-06T02:25:29.310Z,6.80
2019-01-06T02:28:00.210Z,6.80
2019-01-06T02:30:31.100Z,6.70
2019-01-06T02:33:18.379Z,6.70
2019-01-06T02:36:05.423Z,6.70
2019-01-06T02:38:44.975Z,6.70
2019-01-06T02:41:27.893Z,6.70
2019-01-06T02:44:04.591Z,6.70
2019-01-06T02:46:47.293Z,6.70
2019-01-06T02:49:36.071Z,6.70
2019-01-06T02:52:09.758Z,6.70
2019-01-06T02:54:43.288Z,6.70
2019-01-06T02:57:23.485Z,6.70
2019-01-06T03:00:10.792Z,6.80
2019-01-06T03:02:41.621Z,6.80
2019-01-06T03:05:15.245Z,6.80
2019-01-06T03:07:52.018Z,6.80
2019-01-06T03:10:28.603Z,6.70
2019-01-06T03:12:59.451Z,6.70
2019-01-06T03:15:30.346Z,6.70
2019-01-06T03:18:13.298Z,6.70
2019-01-06T03:21:02.480Z,6.60
2019-01-06T03:23:36.350Z,6.60
2019-01-06T03:26:07.201Z,6.60
2019-01-06T03:28:56.274Z,6.60
2019-01-06T03:31:32.865Z,6.60
2019-01-06T03:34:03.720Z,6.60
2019-01-06T03:36:37.381Z,6.60
2019-01-06T03:39:08.277Z,6.60
2019-01-06T03:41:55.443Z,6.60
2019-01-06T03:44:29.454Z,6.60
2019-01-06T03:47:03.337Z,6.50
2019-01-06T03:49:37.061Z,6.50
2019-01-06T03:52:13.822Z,6.60
2019-01-06T03:54:44.675Z,6.60
2019-01-06T03:57:32.102Z,6.60
2019-01-06T04:00:02.942Z,6.60
2019-01-06T04:02:33.786Z,6.50
2019-01-06T04:05:21.631Z,6.50
2019-01-06T04:08:07.665Z,6.50
2019-01-06T04:10:38.498Z,6.50
2019-01-06T04:13:12.398Z,6.50
2019-01-06T04:15:49.004Z,6.50
2019-01-06T04:18:38.227Z,6.50
2019-01-06T04:21:09.093Z,6.50
2019-01-06T04:23:39.955Z,6.50
2019-01-06T04:26:26.954Z,6.50
2019-01-06T04:29:03.542Z,6.50
2019-01-06T04:31:50.870Z,6.50
2019-01-06T04:34:24.851Z,6.50
2019-01-06T04:36:55.681Z,6.50
2019-01-06T04:39:26.541Z,6.50
2019-01-06T04:41:57.586Z,6.50
2019-01-06T04:44:41.355Z,6.50
2019-01-06T04:47:12.183Z,6.50
2019-01-06T04:49:52.174Z,6.50
2019-01-06T04:52:23.011Z,6.50
2019-01-06T04:54:56.910Z,6.50
2019-01-06T04:57:36.656Z,6.50
2019-01-06T05:00:12.315Z,6.50
2019-01-06T05:02:43.163Z,6.50
2019-01-06T05:05:23.083Z,6.40
2019-01-06T05:07:53.946Z,6.40
2019-01-06T05:10:39.781Z,6.30
2019-01-06T05:13:10.635Z,6.30
2019-01-06T05:15:41.467Z,6.20
2019-01-06T05:18:28.450Z,6.20
2019-01-06T05:21:15.880Z,6.10
2019-01-06T05:23:53.131Z,6.10
2019-01-06T05:26:40.191Z,6.10
2019-01-06T05:29:27.521Z,6.10
2019-01-06T05:31:58.355Z,6.20
2019-01-06T05:34:44.542Z,6.20
2019-01-06T05:37:18.622Z,6.20
2019-01-06T05:39:49.484Z,6.20
2019-01-06T05:42:36.786Z,6.20
2019-01-06T05:45:07.641Z,6.20
2019-01-06T05:47:54.978Z,6.30
2019-01-06T05:50:28.782Z,6.30
2019-01-06T05:53:16.156Z,6.30
2019-01-06T05:55:47.012Z,6.30
2019-01-06T05:58:20.288Z,6.30
2019-01-06T06:00:51.140Z,6.30
2019-01-06T06:03:30.967Z,6.30
2019-01-06T06:06:01.802Z,6.30
2019-01-06T06:08:44.671Z,6.20
2019-01-06T06:11:18.495Z,6.20
2019-01-06T06:13:55.451Z,6.20
2019-01-06T06:16:38.254Z,6.20
2019-01-06T06:19:25.691Z,6.10
2019-01-06T06:21:56.518Z,6.10
2019-01-06T06:24:30.327Z,6.10
2019-01-06T06:27:17.510Z,6.10
2019-01-06T06:29:54.337Z,6.20
2019-01-06T06:32:28.149Z,6.20
2019-01-06T06:35:14.209Z,6.20
2019-01-06T06:37:47.806Z,6.20
2019-01-06T06:40:24.411Z,6.20
2019-01-06T06:42:55.276Z,6.20
2019-01-06T06:45:29.035Z,6.20
2019-01-06T06:48:15.185Z,6.20
2019-01-06T06:51:02.271Z,6.20
2019-01-06T06:53:48.452Z,6.30
2019-01-06T06:56:25.189Z,6.30
2019-01-06T06:58:56.042Z,6.20
2019-01-06T07:01:29.335Z,6.20
2019-01-06T07:04:00.197Z,6.30
2019-01-06T07:06:39.863Z,6.40
2019-01-06T07:09:25.501Z,6.40
2019-01-06T07:12:02.419Z,6.40
2019-01-06T07:14:51.320Z,6.40
2019-01-06T07:17:58.614Z,6.40
2019-01-06T07:20:40.161Z,6.50
2019-01-06T07:23:10.997Z,6.50
2019-01-06T07:25:41.865Z,6.60
2019-01-06T07:28:13.003Z,6.60
2019-01-06T07:30:49.849Z,6.60
2019-01-06T07:33:37.128Z,6.50
2019-01-06T07:36:11.312Z,6.50
2019-01-06T07:38:51.394Z,6.50
2019-01-06T07:41:37.255Z,6.50
2019-01-06T07:44:08.105Z,6.50
2019-01-06T07:46:41.618Z,6.50
2019-01-06T07:49:21.401Z,6.50
2019-01-06T07:51:57.984Z,6.50
2019-01-06T07:54:34.541Z,6.50
2019-01-06T07:57:21.872Z,6.50
2019-01-06T07:59:52.729Z,6.50
2019-01-06T08:02:26.706Z,6.50
2019-01-06T08:05:00.254Z,6.40
2019-01-06T08:07:43.046Z,6.40
2019-01-06T08:10:30.383Z,6.40
2019-01-06T08:13:19.499Z,6.40
2019-01-06T08:15:59.539Z,6.40
2019-01-06T08:18:45.653Z,6.40
2019-01-06T08:21:31.369Z,6.40
2019-01-06T08:24:08.163Z,6.40
2019-01-06T08:26:48.145Z,6.50
2019-01-06T08:29:21.933Z,6.50
2019-01-06T08:32:04.585Z,6.60
2019-01-06T08:34:35.456Z,6.60
2019-01-06T08:37:12.022Z,6.70
2019-01-06T08:39:49.167Z,6.70
2019-01-06T08:42:36.467Z,6.70
2019-01-06T08:45:25.929Z,6.70
2019-01-06T08:48:08.742Z,6.70
2019-01-06T08:50:55.882Z,6.70
2019-01-06T08:53:32.757Z,6.80
2019-01-06T08:56:06.502Z,6.80
2019-01-06T08:58:40.048Z,6.80
2019-01-06T09:01:16.703Z,6.90
2019-01-06T09:03:53.425Z,7.00
2019-01-06T09:06:42.573Z,7.00
2019-01-06T09:09:28.463Z,7.20
2019-01-06T09:12:08.055Z,7.30
2019-01-06T09:14:55.344Z,7.40
2019-01-06T09:17:44.433Z,7.50
2019-01-06T09:20:24.431Z,7.60
2019-01-06T09:23:11.732Z,7.70
2019-01-06T09:25:57.922Z,7.80
2019-01-06T09:28:28.794Z,7.70
2019-01-06T09:31:08.377Z,7.60
2019-01-06T09:33:41.648Z,7.60
2019-01-06T09:36:29.231Z,7.40
2019-01-06T09:39:06.504Z,7.30
2019-01-06T09:41:37.642Z,7.30
2019-01-06T09:44:11.488Z,7.30
2019-01-06T09:46:42.310Z,7.30
2019-01-06T09:49:15.705Z,7.30
2019-01-06T09:51:46.542Z,7.30
2019-01-06T09:54:20.401Z,7.30
2019-01-06T09:57:06.348Z,7.50
2019-01-06T09:59:53.718Z,7.60
2019-01-06T10:02:25.002Z,7.70
2019-01-06T10:04:58.814Z,7.80
2019-01-06T10:07:29.699Z,7.80
2019-01-06T10:10:03.450Z,7.80
2019-01-06T10:12:40.498Z,7.70
2019-01-06T10:15:23.384Z,7.60
2019-01-06T10:17:54.385Z,7.60
2019-01-06T10:20:28.107Z,7.50
2019-01-06T10:22:58.934Z,7.50
2019-01-06T10:25:46.481Z,7.60
2019-01-06T10:28:29.417Z,7.70
2019-01-06T10:31:03.214Z,7.70
2019-01-06T10:33:45.782Z,7.80
2019-01-06T10:36:32.031Z,7.70
2019-01-06T10:39:19.370Z,7.70
2019-01-06T10:42:06.770Z,7.50
2019-01-06T10:44:54.066Z,7.50
2019-01-06T10:47:24.909Z,7.40
2019-01-06T10:50:07.781Z,7.30
2019-01-06T10:52:55.362Z,7.30
2019-01-06T10:55:38.600Z,7.20
2019-01-06T10:58:21.403Z,7.10
2019-01-06T11:00:55.206Z,7.10
2019-01-06T11:03:26.058Z,7.10
2019-01-06T11:06:13.162Z,7.10
2019-01-06T11:08:49.788Z,7.10
2019-01-06T11:11:37.125Z,7.10
2019-01-06T11:14:07.968Z,7.10
2019-01-06T11:16:55.163Z,7.20
2019-01-06T11:19:40.948Z,7.30
2019-01-06T11:22:14.501Z,7.40
2019-01-06T11:24:48.143Z,7.40
2019-01-06T11:27:29.367Z,7.50
2019-01-06T11:30:00.236Z,7.50
2019-01-06T11:32:47.401Z,7.60
2019-01-06T11:35:18.250Z,7.70
2019-01-06T11:38:00.688Z,7.70
2019-01-06T11:40:37.344Z,7.60
2019-01-06T11:43:14.240Z,7.60
2019-01-06T11:46:01.039Z,7.70
2019-01-06T11:48:31.902Z,7.70
2019-01-06T11:51:20.918Z,7.90
2019-01-06T11:53:54.563Z,7.90
2019-01-06T11:56:42.243Z,7.90
2019-01-06T11:59:29.353Z,7.80
2019-01-06T12:02:12.064Z,7.90
2019-01-06T12:04:48.613Z,7.80
2019-01-06T12:07:35.695Z,7.90
2019-01-06T12:10:24.857Z,7.90
2019-01-06T12:13:12.333Z,7.80
2019-01-06T12:15:59.757Z,7.70
2019-01-06T12:18:42.512Z,7.60
2019-01-06T12:21:31.598Z,7.60
2019-01-06T12:24:18.950Z,7.50
2019-01-06T12:26:49.789Z,7.50
2019-01-06T12:29:41.916Z,7.60
2019-01-06T12:32:25.101Z,7.70
2019-01-06T12:35:14.367Z,7.60
2019-01-06T12:37:51.296Z,7.60
2019-01-06T12:40:37.488Z,7.50
2019-01-06T12:43:23.290Z,7.50
2019-01-06T12:46:00.076Z,7.30
2019-01-06T12:48:52.112Z,7.30
2019-01-06T12:51:43.416Z,7.20
2019-01-06T12:54:26.711Z,7.20
2019-01-06T12:57:00.566Z,7.20
2019-01-06T12:59:44.103Z,7.10
2019-01-06T13:02:17.759Z,7.10
2019-01-06T13:04:48.627Z,7.10
2019-01-06T13:07:25.107Z,7.10
2019-01-06T13:10:00.005Z,7.10
2019-01-06T13:12:34.267Z,7.00
2019-01-06T13:15:24.105Z,7.00
2019-01-06T13:18:11.572Z,7.00
2019-01-06T13:23:54.754Z,7.00
2019-01-06T13:26:28.122Z,7.00
2019-01-06T13:29:01.579Z,7.10
2019-01-06T13:31:32.417Z,7.00
2019-01-06T13:34:12.550Z,7.00
2019-01-06T13:36:43.386Z,7.00
2019-01-06T13:39:16.755Z,7.00
2019-01-06T13:41:50.660Z,6.90
2019-01-06T13:44:30.651Z,6.90
2019-01-06T13:47:10.263Z,6.90
2019-01-06T13:49:43.823Z,6.90
2019-01-06T13:52:30.214Z,6.90
2019-01-06T13:55:01.059Z,6.80
2019-01-06T13:57:43.979Z,6.80
2019-01-06T14:00:31.770Z,6.80
2019-01-06T14:03:02.593Z,6.70
2019-01-06T14:05:33.443Z,6.60
2019-01-06T14:08:31.134Z,6.60
2019-01-06T14:11:13.963Z,6.60
2019-01-06T14:13:50.605Z,6.60
2019-01-06T14:16:37.875Z,6.60
2019-01-06T14:19:11.680Z,6.60
2019-01-06T14:21:51.761Z,6.60
2019-01-06T14:24:29.348Z,6.60
2019-01-06T14:27:18.546Z,6.60
2019-01-06T14:29:57.505Z,6.70
2019-01-06T14:32:45.103Z,6.70
2019-01-06T14:35:32.413Z,6.70
2019-01-06T14:38:21.590Z,6.70
2019-01-06T14:40:52.615Z,6.70
2019-01-06T14:43:26.331Z,6.70
2019-01-06T14:46:15.222Z,6.70
2019-01-06T14:48:46.074Z,6.70
2019-01-06T14:51:16.899Z,6.70
2019-01-06T14:53:47.763Z,6.80
2019-01-06T14:56:34.821Z,6.80
2019-01-06T14:59:14.808Z,6.80
2019-01-06T15:01:48.686Z,6.70
2019-01-06T15:04:22.249Z,6.70
2019-01-06T15:07:04.669Z,6.70
2019-01-06T15:09:51.825Z,6.70
2019-01-06T15:12:40.995Z,6.70
2019-01-06T15:15:20.669Z,6.70
2019-01-06T15:17:51.615Z,6.60
2019-01-06T15:20:22.451Z,6.60
2019-01-06T15:22:55.814Z,6.60
2019-01-06T15:25:30.654Z,6.60
2019-01-06T15:28:17.710Z,6.60
2019-01-06T15:30:48.715Z,6.60
2019-01-06T15:33:37.702Z,6.60
2019-01-06T15:36:25.152Z,6.60
2019-01-06T15:39:01.777Z,6.60
2019-01-06T15:41:36.487Z,6.60
2019-01-06T15:44:23.599Z,6.60
2019-01-06T15:46:54.436Z,6.60
2019-01-06T15:49:31.035Z,6.70
2019-01-06T15:52:16.946Z,6.70
2019-01-06T15:55:04.248Z,6.80
2019-01-06T15:57:35.503Z,6.80
2019-01-06T16:00:09.515Z,6.70
2019-01-06T16:02:46.050Z,6.70
2019-01-06T16:05:34.224Z,6.70
2019-01-06T16:08:08.050Z,6.70
2019-01-06T16:10:45.059Z,6.70
2019-01-06T16:13:15.894Z,6.70
2019-01-06T16:15:55.837Z,6.70
2019-01-06T16:18:45.162Z,6.70
2019-01-06T16:21:27.794Z,6.70
2019-01-06T16:23:58.654Z,6.70
2019-01-06T16:26:29.502Z,6.70
2019-01-06T16:29:09.971Z,6.70
2019-01-06T16:31:57.170Z,6.70
2019-01-06T16:34:28.026Z,6.70
2019-01-06T16:37:07.611Z,6.70
2019-01-06T16:39:55.046Z,6.70
2019-01-06T16:42:25.977Z,6.90
2019-01-06T16:45:02.703Z,6.90
2019-01-06T16:47:39.785Z,6.80
2019-01-06T16:50:10.910Z,6.80
2019-01-06T16:52:50.933Z,6.80
2019-01-06T16:55:21.773Z,6.70
2019-01-06T16:57:55.578Z,6.70
2019-01-06T17:00:38.245Z,6.70
2019-01-06T17:03:15.890Z,6.70
2019-01-06T17:05:46.722Z,6.70
2019-01-06T17:08:33.824Z,6.70
2019-01-06T17:11:20.813Z,6.70
2019-01-06T17:13:58.077Z,6.70
2019-01-06T17:16:44.281Z,6.70
2019-01-06T17:19:31.593Z,6.70
2019-01-06T17:22:18.926Z,6.70
2019-01-06T17:25:06.205Z,6.70
2019-01-06T17:27:53.318Z,6.70
2019-01-06T17:30:40.378Z,6.80
2019-01-06T17:33:27.699Z,6.80
2019-01-06T17:36:10.570Z,6.70
2019-01-06T17:38:58.051Z,6.70
2019-01-06T17:41:28.945Z,6.80
2019-01-06T17:44:05.913Z,6.80
2019-01-06T17:46:48.962Z,6.80
2019-01-06T17:49:25.851Z,6.80
2019-01-06T17:52:02.635Z,6.80
2019-01-06T17:54:51.759Z,6.90
2019-01-06T17:57:37.618Z,6.90
2019-01-06T18:00:27.514Z,7.00
2019-01-06T18:02:58.381Z,7.00
2019-01-06T18:05:36.141Z,6.90
2019-01-06T18:08:23.594Z,6.80
2019-01-06T18:11:06.502Z,6.80
2019-01-06T18:13:55.418Z,6.70
2019-01-06T18:16:42.507Z,6.70
2019-01-06T18:19:29.462Z,6.70
2019-01-06T18:22:00.327Z,6.70
2019-01-06T18:24:31.169Z,6.70
2019-01-06T18:27:18.262Z,6.70
2019-01-06T18:30:05.304Z,6.60
2019-01-06T18:32:42.146Z,6.60
2019-01-06T18:35:24.862Z,6.50
2019-01-06T18:37:58.254Z,6.50
2019-01-06T18:40:36.139Z,6.50
2019-01-06T18:43:07.001Z,6.50
2019-01-06T18:45:54.387Z,6.60
2019-01-06T18:48:25.262Z,6.60
2019-01-06T18:50:56.097Z,6.60
2019-01-06T18:53:43.477Z,6.60
2019-01-06T18:56:30.771Z,6.60
2019-01-06T18:59:07.666Z,6.50
2019-01-06T19:01:38.523Z,6.50
2019-01-06T19:04:12.323Z,6.50
2019-01-06T19:06:59.436Z,6.60
2019-01-06T19:09:36.616Z,6.60
2019-01-06T19:12:23.964Z,6.60
2019-01-06T19:15:03.997Z,6.60
2019-01-06T19:17:49.902Z,6.60
2019-01-06T19:20:20.773Z,6.70
2019-01-06T19:22:51.610Z,6.70
2019-01-06T19:25:39.013Z,6.70
2019-01-06T19:28:09.846Z,6.70
2019-01-06T19:30:46.596Z,6.70
2019-01-06T19:33:20.411Z,6.70
2019-01-06T19:36:00.327Z,6.60
2019-01-06T19:38:31.514Z,6.60
2019-01-06T19:41:08.302Z,6.60
2019-01-06T19:43:39.170Z,6.60
2019-01-06T19:46:10.004Z,6.60
2019-01-06T19:48:49.863Z,6.60
2019-01-06T19:51:26.727Z,6.70
2019-01-06T19:54:09.639Z,6.70
2019-01-06T19:56:49.644Z,6.60
2019-01-06T19:59:35.447Z,6.60
2019-01-06T20:02:09.253Z,6.60
2019-01-06T20:04:40.191Z,6.60
2019-01-06T20:07:11.026Z,6.60
2019-01-06T20:09:41.914Z,6.70
2019-01-06T20:12:12.756Z,6.70
2019-01-06T20:14:46.618Z,6.70
2019-01-06T20:17:20.446Z,6.70
2019-01-06T20:19:54.381Z,6.70
2019-01-06T20:22:41.950Z,6.70
2019-01-06T20:25:15.761Z,6.70
2019-01-06T20:28:04.615Z,6.70
2019-01-06T20:30:41.175Z,6.60
2019-01-06T20:33:17.786Z,6.60
2019-01-06T20:35:51.323Z,6.50
2019-01-06T20:38:31.211Z,6.50
2019-01-06T20:41:18.583Z,6.50
2019-01-06T20:43:52.255Z,6.50
2019-01-06T20:46:39.396Z,6.50
2019-01-06T20:49:22.556Z,6.50
2019-01-06T20:51:59.467Z,6.50
2019-01-06T20:54:46.722Z,6.40
2019-01-06T20:57:27.091Z,6.40
2019-01-06T21:00:04.576Z,6.40
2019-01-06T21:02:43.063Z,6.30
2019-01-06T21:05:19.937Z,6.30
2019-01-06T21:08:07.064Z,6.30
2019-01-06T21:10:56.051Z,6.30
2019-01-06T21:13:45.182Z,6.30
2019-01-06T21:16:25.067Z,6.20
2019-01-06T21:19:07.750Z,6.20
2019-01-06T21:21:41.302Z,6.20
2019-01-06T21:24:12.177Z,6.30
2019-01-06T21:26:43.009Z,6.30
2019-01-06T21:29:13.921Z,6.20
2019-01-06T21:31:56.793Z,6.20
2019-01-06T21:34:33.616Z,6.20
2019-01-06T21:37:22.383Z,6.10
2019-01-06T21:39:53.367Z,6.20
2019-01-06T21:42:24.223Z,6.20
2019-01-06T21:45:00.930Z,6.20
2019-01-06T21:47:47.969Z,6.20
2019-01-06T21:50:21.558Z,6.20
2019-01-06T21:53:01.447Z,6.20
2019-01-06T21:55:44.282Z,6.30
2019-01-06T21:58:33.651Z,6.30
2019-01-06T22:01:21.034Z,6.30
2019-01-06T22:03:55.805Z,6.30
2019-01-06T22:06:26.662Z,6.20
2019-01-06T22:08:57.522Z,6.20
2019-01-06T22:11:31.063Z,6.20
2019-01-06T22:14:14.082Z,6.20
2019-01-06T22:17:01.398Z,6.20
2019-01-06T22:19:38.361Z,6.20
2019-01-06T22:22:25.794Z,6.20
2019-01-06T22:25:08.879Z,6.20
2019-01-06T22:27:56.234Z,6.20
2019-01-06T22:30:33.106Z,6.20
2019-01-06T22:33:20.396Z,6.20
2019-01-06T22:35:54.038Z,6.30
2019-01-06T22:38:27.821Z,6.30
2019-01-06T22:41:04.776Z,6.30
2019-01-06T22:43:44.498Z,6.40
2019-01-06T22:46:18.399Z,6.40
2019-01-06T22:48:52.163Z,6.50
2019-01-06T22:51:28.947Z,6.40
2019-01-06T22:54:16.101Z,6.40
2019-01-06T22:57:02.026Z,6.30
2019-01-06T22:59:35.916Z,6.30
2019-01-06T23:02:15.606Z,6.40
2019-01-06T23:04:56.434Z,6.30
2019-01-06T23:07:27.314Z,6.30
2019-01-06T23:09:58.154Z,6.30
2019-01-06T23:12:31.853Z,6.30
2019-01-06T23:15:03.264Z,6.30
2019-01-06T23:17:44.490Z,6.30
2019-01-06T23:20:27.373Z,6.30
2019-01-06T23:22:58.248Z,6.40
2019-01-06T23:25:35.175Z,6.40
2019-01-06T23:28:06.040Z,6.40
2019-01-06T23:30:39.606Z,6.30
2019-01-06T23:33:10.974Z,6.30
2019-01-06T23:35:58.410Z,6.30
2019-01-06T23:38:38.097Z,6.20
2019-01-06T23:41:09.093Z,6.20
2019-01-06T23:43:48.894Z,6.20
2019-01-06T23:46:19.739Z,6.20
2019-01-06T23:48:56.435Z,6.20
2019-01-06T23:51:43.542Z,6.20
2019-01-06T23:54:14.385Z,6.20
2019-01-06T23:57:03.454Z,6.10
2019-01-06T23:59:34.313Z,6.10
